createdAt,value
2023-05-15T00:02:10.482Z,10.49
2023-05-15T00:07:12.094Z,10.49
2023-05-15T00:12:13.622Z,10.40
2023-05-15T00:17:15.147Z,10.33
2023-05-15T00:22:16.590Z,10.25
2023-05-15T00:27:18.146Z,10.21
2023-05-15T00:32:19.694Z,10.13
2023-05-15T00:37:21.224Z,10.04
2023-05-15T00:42:24.960Z,10.03
2023-05-15T00:47:26.830Z,10.04
2023-05-15T00:52:29.444Z,9.97
2023-05-15T00:57:34.654Z,9.95
2023-05-15T01:02:37.080Z,10.03
2023-05-15T01:07:51.146Z,10.02
2023-05-15T01:12:55.370Z,9.97
2023-05-15T01:17:56.995Z,9.98
2023-05-15T01:23:24.202Z,10.01
2023-05-15T01:28:31.942Z,10.01
2023-05-15T01:33:38.947Z,10.01
2023-05-15T01:39:03.422Z,10.00
2023-05-15T01:44:20.226Z,9.97
2023-05-15T01:49:26.266Z,9.89
2023-05-15T01:54:29.701Z,9.88
2023-05-15T01:59:33.140Z,9.83
2023-05-15T02:04:35.522Z,9.78
2023-05-15T02:09:37.283Z,9.74
2023-05-15T02:14:41.023Z,9.75
2023-05-15T02:19:42.529Z,9.68
2023-05-15T02:24:44.688Z,9.48
2023-05-15T02:29:55.696Z,9.43
2023-05-15T02:35:21.615Z,9.44
2023-05-15T02:40:24.817Z,9.38
2023-05-15T02:45:26.684Z,9.32
2023-05-15T02:50:28.944Z,9.37
2023-05-15T02:55:31.202Z,9.46
2023-05-15T03:00:32.856Z,9.58
2023-05-15T03:05:34.371Z,9.63
2023-05-15T03:10:36.036Z,9.56
2023-05-15T03:15:37.514Z,9.56
2023-05-15T03:20:39.003Z,9.62
2023-05-15T03:25:40.499Z,9.53
2023-05-15T03:30:44.459Z,9.38
2023-05-15T03:35:46.105Z,9.33
2023-05-15T03:40:50.237Z,9.37
2023-05-15T03:45:52.529Z,9.39
2023-05-15T03:50:54.208Z,9.38
2023-05-15T03:55:56.915Z,9.38
2023-05-15T04:00:58.584Z,9.39
2023-05-15T04:06:00.171Z,9.45
2023-05-15T04:11:01.737Z,9.46
2023-05-15T04:16:04.425Z,9.55
2023-05-15T04:21:06.116Z,9.58
2023-05-15T04:26:08.315Z,9.65
2023-05-15T04:31:09.797Z,9.75
2023-05-15T04:36:11.406Z,9.76
2023-05-15T04:41:12.908Z,9.77
2023-05-15T04:46:14.447Z,9.83
2023-05-15T04:51:15.946Z,9.85
2023-05-15T04:56:17.423Z,9.90
2023-05-15T05:01:18.969Z,9.90
2023-05-15T05:06:20.571Z,10.03
2023-05-15T05:11:22.100Z,10.23
2023-05-15T05:16:23.682Z,10.42
2023-05-15T05:21:25.339Z,10.58
2023-05-15T05:26:27.191Z,10.69
2023-05-15T05:31:28.780Z,10.70
2023-05-15T05:36:30.430Z,10.69
2023-05-15T05:41:31.908Z,10.63
2023-05-15T05:46:33.451Z,10.75
2023-05-15T05:51:37.021Z,10.88
2023-05-15T05:56:38.518Z,10.87
2023-05-15T06:01:40.266Z,10.76
2023-05-15T06:06:41.865Z,10.85
2023-05-15T06:11:43.569Z,10.93
2023-05-15T06:16:45.169Z,11.05
2023-05-15T06:21:46.724Z,11.05
2023-05-15T06:26:49.645Z,11.04
2023-05-15T06:31:51.972Z,11.27
2023-05-15T06:36:53.552Z,11.44
2023-05-15T06:41:59.133Z,11.55
2023-05-15T06:47:00.751Z,11.61
2023-05-15T06:52:02.362Z,11.64
2023-05-15T06:57:03.953Z,11.65
2023-05-15T07:02:05.602Z,11.60
2023-05-15T07:07:07.203Z,11.65
2023-05-15T07:12:09.044Z,11.94
2023-05-15T07:17:11.099Z,12.29
2023-05-15T07:22:12.694Z,12.39
2023-05-15T07:27:14.513Z,12.50
2023-05-15T07:32:16.080Z,12.61
2023-05-15T07:37:17.569Z,12.81
2023-05-15T07:42:19.100Z,12.94
2023-05-15T07:47:20.733Z,13.10
2023-05-15T07:52:22.220Z,13.38
2023-05-15T07:57:24.278Z,13.49
2023-05-15T08:02:25.963Z,13.65
2023-05-15T08:07:27.587Z,13.67
2023-05-15T08:12:29.160Z,13.85
2023-05-15T08:17:30.705Z,13.93
2023-05-15T08:22:32.259Z,13.78
2023-05-15T08:27:36.376Z,13.52
2023-05-15T08:32:38.022Z,13.53
2023-05-15T08:37:39.726Z,13.65
2023-05-15T08:42:47.990Z,13.54
2023-05-15T08:47:49.565Z,13.42
2023-05-15T08:52:53.289Z,13.37
2023-05-15T08:57:54.998Z,13.55
2023-05-15T09:03:00.409Z,13.73
2023-05-15T09:08:05.515Z,13.92
2023-05-15T09:13:07.886Z,13.99
2023-05-15T09:18:09.902Z,14.14
2023-05-15T09:23:26.235Z,14.22
2023-05-15T09:28:30.211Z,14.05
2023-05-15T09:33:35.144Z,13.99
2023-05-15T09:38:43.590Z,13.88
2023-05-15T09:43:45.085Z,13.81
2023-05-15T09:48:46.711Z,13.83
2023-05-15T09:53:50.474Z,14.00
2023-05-15T09:58:54.341Z,14.18
2023-05-15T10:04:03.533Z,14.19
2023-05-15T10:09:06.393Z,14.10
2023-05-15T10:14:13.699Z,14.17
2023-05-15T10:19:15.356Z,14.06
2023-05-15T10:24:20.707Z,13.95
2023-05-15T10:29:25.397Z,13.90
2023-05-15T10:34:27.670Z,13.70
2023-05-15T10:39:29.412Z,13.55
2023-05-15T10:44:30.881Z,13.50
2023-05-15T10:49:32.594Z,13.46
2023-05-15T10:54:35.168Z,13.51
2023-05-15T10:59:36.724Z,13.46
2023-05-15T11:04:38.828Z,13.48
2023-05-15T11:09:40.957Z,13.44
2023-05-15T11:14:44.431Z,13.32
2023-05-15T11:19:48.940Z,13.35
2023-05-15T11:24:59.203Z,13.32
2023-05-15T11:30:07.811Z,13.46
2023-05-15T11:35:21.907Z,13.46
2023-05-15T11:40:23.764Z,13.72
2023-05-15T11:45:25.532Z,13.98
2023-05-15T11:50:28.003Z,14.11
2023-05-15T11:55:31.663Z,14.19
2023-05-15T12:00:33.392Z,14.29
2023-05-15T12:05:34.939Z,14.43
2023-05-15T12:10:43.751Z,14.50
2023-05-15T12:15:47.251Z,14.49
2023-05-15T12:20:52.630Z,14.48
2023-05-15T12:25:59.501Z,14.60
2023-05-15T12:31:01.121Z,14.53
2023-05-15T12:36:03.183Z,14.71
2023-05-15T12:41:05.554Z,14.97
2023-05-15T12:46:07.094Z,14.99
2023-05-15T12:51:08.904Z,15.08
2023-05-15T12:56:16.021Z,15.08
2023-05-15T13:01:17.682Z,14.97
2023-05-15T13:06:19.934Z,14.98
2023-05-15T13:11:22.397Z,14.81
2023-05-15T13:16:26.096Z,14.76
2023-05-15T13:21:27.698Z,14.67
2023-05-15T13:26:29.227Z,14.62
2023-05-15T13:31:30.890Z,14.67
2023-05-15T13:36:32.451Z,14.69
2023-05-15T13:41:34.006Z,14.87
2023-05-15T13:46:35.579Z,14.86
2023-05-15T13:51:37.239Z,14.84
2023-05-15T13:56:38.807Z,14.63
2023-05-15T14:01:40.319Z,14.45
2023-05-15T14:06:41.876Z,14.27
2023-05-15T14:11:43.420Z,14.01
2023-05-15T14:16:45.139Z,14.14
2023-05-15T14:21:46.674Z,13.89
2023-05-15T14:26:48.476Z,13.85
2023-05-15T14:31:50.320Z,13.94
2023-05-15T14:36:51.946Z,13.94
2023-05-15T14:41:53.563Z,14.07
2023-05-15T14:47:16.195Z,14.11
2023-05-15T14:52:17.696Z,13.96
2023-05-15T14:57:20.451Z,13.78
2023-05-15T15:02:21.986Z,13.76
2023-05-15T15:07:28.486Z,13.60
2023-05-15T15:12:30.027Z,13.56
2023-05-15T15:17:31.582Z,13.53
2023-05-15T15:22:33.124Z,13.51
2023-05-15T15:27:37.054Z,13.43
2023-05-15T15:32:39.368Z,13.66
2023-05-15T15:37:40.952Z,13.72
2023-05-15T15:42:42.498Z,13.73
2023-05-15T15:47:44.492Z,13.74
2023-05-15T15:52:46.732Z,13.79
2023-05-15T15:57:48.206Z,13.61
2023-05-15T16:02:49.826Z,13.57
2023-05-15T16:07:51.491Z,13.57
2023-05-15T16:12:53.125Z,13.41
2023-05-15T16:17:55.170Z,13.30
2023-05-15T16:22:56.870Z,13.16
2023-05-15T16:27:58.452Z,13.01
2023-05-15T16:33:00.074Z,12.77
2023-05-15T16:38:01.855Z,12.66
2023-05-15T16:43:03.428Z,12.37
2023-05-15T16:48:05.509Z,12.26
2023-05-15T16:53:07.421Z,12.29
2023-05-15T16:58:08.980Z,12.38
2023-05-15T17:03:10.661Z,12.50
2023-05-15T17:08:12.308Z,12.51
2023-05-15T17:13:13.852Z,12.50
2023-05-15T17:18:17.030Z,12.51
2023-05-15T17:23:18.506Z,12.51
2023-05-15T17:28:20.001Z,12.47
2023-05-15T17:33:21.516Z,12.54
2023-05-15T17:38:22.979Z,12.69
2023-05-15T17:43:24.541Z,12.69
2023-05-15T17:48:26.778Z,12.63
2023-05-15T17:53:28.301Z,12.61
2023-05-15T17:58:30.142Z,12.31
2023-05-15T18:03:34.126Z,12.24
2023-05-15T18:08:35.819Z,11.99
2023-05-15T18:13:37.302Z,11.59
2023-05-15T18:18:39.174Z,11.28
2023-05-15T18:23:40.847Z,11.02
2023-05-15T18:28:42.394Z,10.89
2023-05-15T18:33:44.955Z,10.57
2023-05-15T18:38:46.560Z,10.44
2023-05-15T18:43:48.049Z,10.26
2023-05-15T18:48:49.530Z,10.19
2023-05-15T18:53:51.128Z,10.12
2023-05-15T18:58:54.344Z,10.01
2023-05-15T19:03:55.849Z,10.10
2023-05-15T19:08:57.439Z,10.08
2023-05-15T19:13:58.899Z,10.09
2023-05-15T19:19:03.011Z,10.09
2023-05-15T19:24:05.884Z,9.95
2023-05-15T19:29:07.448Z,9.89
2023-05-15T19:34:09.016Z,9.94
2023-05-15T19:39:10.656Z,10.05
2023-05-15T19:44:12.170Z,10.10
2023-05-15T19:49:13.729Z,10.14
2023-05-15T19:54:16.117Z,10.11
2023-05-15T19:59:17.625Z,10.10
2023-05-15T20:04:20.938Z,10.10
2023-05-15T20:09:22.497Z,10.12
2023-05-15T20:14:23.977Z,10.17
2023-05-15T20:19:26.556Z,10.14
2023-05-15T20:24:28.203Z,10.00
2023-05-15T20:29:29.825Z,9.91
2023-05-15T20:34:32.958Z,9.91
2023-05-15T20:39:34.538Z,9.97
2023-05-15T20:44:38.363Z,10.04
2023-05-15T20:49:39.943Z,10.09
2023-05-15T20:54:41.514Z,10.10
2023-05-15T20:59:43.094Z,10.12
2023-05-15T21:04:44.649Z,10.13
2023-05-15T21:09:46.210Z,10.04
2023-05-15T21:14:47.697Z,10.00
2023-05-15T21:19:49.192Z,9.99
2023-05-15T21:24:50.910Z,9.96
2023-05-15T21:29:52.496Z,9.86
2023-05-15T21:34:53.973Z,9.84
2023-05-15T21:39:55.521Z,9.79
2023-05-15T21:44:57.065Z,9.80
2023-05-15T21:49:58.601Z,9.76
2023-05-15T21:55:00.163Z,9.74
2023-05-15T22:00:01.941Z,9.68
2023-05-15T22:05:03.959Z,9.64
2023-05-15T22:10:06.166Z,9.64
2023-05-15T22:15:08.304Z,9.62
2023-05-15T22:20:11.498Z,9.60
2023-05-15T22:25:13.596Z,9.60
2023-05-15T22:30:15.184Z,9.58
2023-05-15T22:35:16.859Z,9.48
2023-05-15T22:40:18.415Z,9.48
2023-05-15T22:45:20.371Z,9.44
2023-05-15T22:50:21.872Z,9.45
2023-05-15T22:55:23.333Z,9.39
2023-05-15T23:00:24.915Z,9.36
2023-05-15T23:05:27.645Z,9.38
2023-05-15T23:10:29.327Z,9.41
2023-05-15T23:15:31.048Z,9.41
2023-05-15T23:20:32.648Z,9.47
2023-05-15T23:25:34.125Z,9.42
2023-05-15T23:30:35.652Z,9.36
2023-05-15T23:35:37.127Z,9.37
2023-05-15T23:40:38.653Z,9.32
2023-05-15T23:45:40.253Z,9.29
2023-05-15T23:50:41.740Z,9.27
2023-05-15T23:55:43.226Z,9.27
